Time;durP1;ratioP1;P1;durP2;ratioP2;P2;SDS_P1;SDS_P2;PMS_P1;PMS_P2;Temp;Humidity;BMP_temperature;BMP_pressure;BME280_temperature;BME280_humidity;BME280_pressure;Samples;Min_cycle;Max_cycle;Signal;HPM_P1;HPM_P2
2023/06/15 20:19:21;;;;;;;6.23;2.80;;;;;;;21.68;44.18;101749.31;5838190;22;10387888;-81
2023/06/15 20:21:46;;;;;;;6.47;2.75;;;;;;;21.65;44.43;101744.31;6274983;22;20258;-78
2023/06/15 20:24:12;;;;;;;6.45;3.20;;;;;;;21.56;44.02;101750.63;6216091;22;20357;-79
2023/06/15 20:26:38;;;;;;;7.40;4.00;;;;;;;21.51;44.76;101750.25;6188214;23;20444;-79
2023/06/15 20:29:04;;;;;;;8.50;4.50;;;;;;;21.53;44.93;101754.44;6189564;23;20008;-79
2023/06/15 20:31:35;;;;;;;6.10;3.53;;;;;;;21.43;44.95;101755.59;6184079;23;20609;-82
2023/06/15 20:34:01;;;;;;;10.07;3.00;;;;;;;21.43;45.49;101759.13;6179159;23;20005;-80
2023/06/15 20:36:26;;;;;;;6.57;3.10;;;;;;;21.38;45.74;101752.56;6156120;23;20005;-81
2023/06/15 20:38:52;;;;;;;9.52;3.40;;;;;;;21.39;45.48;101754.25;6179732;23;20385;-82
2023/06/15 20:41:26;;;;;;;7.75;3.25;;;;;;;21.21;45.08;101746.25;6182193;23;20032;-81
2023/06/15 20:43:52;;;;;;;8.82;3.50;;;;;;;21.12;45.45;101748.06;6181772;23;20623;-79
2023/06/15 20:46:34;;;;;;;15.40;3.40;;;;;;;21.06;45.17;101754.06;6182426;23;20072;-79
2023/06/15 20:49:00;;;;;;;4.97;3.28;;;;;;;20.96;45.51;101753.34;6181703;23;20437;-82
2023/06/15 20:51:28;;;;;;;8.55;3.03;;;;;;;20.93;46.12;101751.00;6181597;23;20016;-82
2023/06/15 20:53:54;;;;;;;7.78;3.30;;;;;;;20.85;46.02;101748.28;6183049;23;20005;-79
2023/06/15 20:56:19;;;;;;;9.00;3.30;;;;;;;20.82;45.93;101751.28;6181975;23;20489;-82
2023/06/15 20:58:45;;;;;;;6.70;3.20;;;;;;;20.73;46.39;101753.03;6206877;23;20015;-83
2023/06/15 21:01:13;;;;;;;11.75;3.50;;;;;;;20.67;46.40;101758.19;6181001;23;20445;-83
2023/06/15 21:03:39;;;;;;;7.60;3.13;;;;;;;20.63;46.79;101757.66;6182755;23;20079;-82
2023/06/15 21:06:05;;;;;;;8.15;3.30;;;;;;;20.58;47.81;101755.44;6182729;23;20116;-82
2023/06/15 21:08:31;;;;;;;6.22;3.22;;;;;;;20.56;48.07;101756.59;6182225;23;20001;-82
2023/06/15 21:11:01;;;;;;;4.25;2.50;;;;;;;20.54;48.64;101759.44;6183161;23;20005;-82
2023/06/15 21:13:27;;;;;;;7.72;3.20;;;;;;;20.50;48.09;101763.44;6181643;23;20025;-82
2023/06/15 21:15:55;;;;;;;6.15;3.10;;;;;;;20.44;48.79;101758.69;6181165;23;20001;-82
2023/06/15 21:18:21;;;;;;;4.95;3.10;;;;;;;20.36;49.36;101750.56;6180766;23;20044;-80
2023/06/15 21:20:48;;;;;;;8.52;3.10;;;;;;;20.29;49.71;101760.19;6181298;23;20032;-83
2023/06/15 21:23:14;;;;;;;8.32;2.85;;;;;;;20.25;49.56;101756.16;6181668;23;20071;-83
2023/06/15 21:25:39;;;;;;;6.13;3.17;;;;;;;20.20;50.20;101758.47;6183438;23;20418;-79
2023/06/15 21:28:09;;;;;;;6.13;2.88;;;;;;;20.09;50.59;101756.03;6181861;23;20023;-82
2023/06/15 21:30:35;;;;;;;6.88;2.90;;;;;;;20.09;50.54;101758.69;6181208;23;19997;-83
2023/06/15 21:33:01;;;;;;;6.95;3.00;;;;;;;20.05;50.58;101760.00;6180485;23;20012;-82
2023/06/15 21:35:26;;;;;;;4.35;2.80;;;;;;;19.96;50.84;101757.22;6182710;23;20343;-79
2023/06/15 21:37:52;;;;;;;6.68;3.10;;;;;;;19.90;51.31;101763.19;6181300;23;20027;-81
2023/06/15 21:40:17;;;;;;;6.15;3.00;;;;;;;19.78;51.56;101760.88;6179066;23;20008;-81
2023/06/15 21:42:44;;;;;;;4.72;2.83;;;;;;;19.73;51.68;101764.00;6179783;23;20001;-78
2023/06/15 21:45:26;;;;;;;6.63;2.88;;;;;;;19.67;51.88;101762.78;6180887;23;20338;-82
2023/06/15 21:47:51;;;;;;;6.38;3.00;;;;;;;19.61;52.28;101763.41;6180871;23;20402;-78
2023/06/15 21:50:27;;;;;;;6.78;2.92;;;;;;;19.57;52.26;101758.47;6181478;23;19997;-82
2023/06/15 21:52:57;;;;;;;7.05;3.00;;;;;;;19.47;53.10;101763.00;6206465;23;20092;-82
2023/06/15 21:55:28;;;;;;;7.22;3.25;;;;;;;19.35;53.43;101763.22;6183282;23;20445;-81
2023/06/15 21:58:02;;;;;;;6.32;3.60;;;;;;;19.35;53.36;101757.88;6179116;23;20005;-82
2023/06/15 22:00:28;;;;;;;9.13;3.38;;;;;;;19.35;53.56;101755.22;6181901;23;20015;-82
2023/06/15 22:03:01;;;;;;;7.00;3.20;;;;;;;19.31;53.85;101759.16;6182531;23;20025;-82
2023/06/15 22:05:26;;;;;;;5.30;3.10;;;;;;;19.21;54.24;101753.03;6181716;23;20009;-82
2023/06/15 22:07:53;;;;;;;5.40;3.53;;;;;;;19.12;54.67;101753.91;6182336;23;20441;-81
2023/06/15 22:10:31;;;;;;;9.52;3.80;;;;;;;19.09;54.63;101764.88;6182678;23;20483;-82
2023/06/15 22:12:56;;;;;;;5.22;3.45;;;;;;;19.04;55.52;101754.63;6179120;23;20072;-83
2023/06/15 22:15:22;;;;;;;4.07;3.38;;;;;;;18.89;56.02;101760.59;6180791;23;20365;-82
2023/06/15 22:18:00;;;;;;;10.10;3.50;;;;;;;18.93;55.39;101756.66;6184324;23;20056;-81
2023/06/15 22:20:31;;;;;;;6.28;3.50;;;;;;;18.85;56.19;101761.88;6210436;23;20020;-82
2023/06/15 22:23:03;;;;;;;7.53;3.50;;;;;;;18.82;56.22;101760.34;6211242;23;20004;-81
2023/06/15 22:25:29;;;;;;;7.30;3.58;;;;;;;18.78;56.59;101757.09;6210906;23;20012;-82
2023/06/15 22:27:58;;;;;;;6.60;3.45;;;;;;;18.74;56.79;101761.03;6212421;23;20072;-79
2023/06/15 22:30:23;;;;;;;3.90;3.20;;;;;;;18.71;56.48;101756.00;6213160;23;20001;-81
2023/06/15 22:32:53;;;;;;;6.97;3.20;;;;;;;18.62;57.08;101761.34;6184018;23;20012;-82
2023/06/15 22:35:20;;;;;;;7.55;3.38;;;;;;;18.60;57.28;101764.13;6185988;23;20426;-82
2023/06/15 22:37:45;;;;;;;6.30;3.28;;;;;;;18.52;57.42;101766.69;6210911;23;20071;-82
2023/06/15 22:40:11;;;;;;;6.63;3.55;;;;;;;18.52;57.63;101772.00;6210935;23;20031;-80
2023/06/15 22:42:36;;;;;;;6.95;3.50;;;;;;;18.44;57.52;101766.56;6212436;22;20031;-81
2023/06/15 22:45:02;;;;;;;5.65;3.60;;;;;;;18.38;57.56;101764.44;6212208;23;20000;-82
2023/06/15 22:47:32;;;;;;;6.00;3.35;;;;;;;18.35;58.26;101767.38;6212098;23;20010;-81
2023/06/15 22:50:00;;;;;;;4.55;3.20;;;;;;;18.34;58.10;101765.69;6210019;23;20004;-79
2023/06/15 22:52:29;;;;;;;5.50;3.83;;;;;;;18.27;58.25;101762.75;6212164;23;19996;-80
2023/06/15 22:54:54;;;;;;;7.50;3.60;;;;;;;18.25;58.91;101763.88;6184996;23;20000;-82
2023/06/15 22:57:20;;;;;;;7.35;3.60;;;;;;;18.19;59.43;101764.44;6212168;23;20058;-81
2023/06/15 22:59:45;;;;;;;7.82;3.58;;;;;;;18.10;59.32;101766.97;6211663;23;20381;-82
2023/06/15 23:02:11;;;;;;;8.45;4.00;;;;;;;18.08;59.64;101763.63;6211605;23;20012;-82
2023/06/15 23:04:37;;;;;;;4.43;3.50;;;;;;;18.02;59.73;101768.66;6213371;23;20418;-83
2023/06/15 23:07:03;;;;;;;7.55;3.92;;;;;;;17.94;60.21;101761.34;6210393;23;20000;-81
2023/06/15 23:09:36;;;;;;;6.25;4.20;;;;;;;17.91;60.35;101769.59;6211634;23;20009;-82
2023/06/15 23:12:03;;;;;;;;;;;;;;;18.08;56.99;101763.63;6213023;23;20016;-82
2023/06/15 23:15:00;;;;;;;5.57;3.75;;;;;;;17.85;60.60;101770.16;6212313;23;19904;-82
2023/06/15 23:17:29;;;;;;;6.43;3.35;;;;;;;17.73;61.14;101769.47;6212855;23;20040;-82
2023/06/15 23:19:55;;;;;;;8.32;3.67;;;;;;;17.72;61.47;101767.78;6210976;23;20019;-82
2023/06/15 23:22:23;;;;;;;4.32;3.33;;;;;;;17.66;61.67;101767.44;6209702;23;20011;-82
2023/06/15 23:24:57;;;;;;;8.68;3.75;;;;;;;17.60;62.28;101763.50;6211653;23;20000;-82
2023/06/15 23:27:23;;;;;;;7.45;4.40;;;;;;;17.55;62.75;101766.56;6184755;23;20083;-82
2023/06/15 23:29:49;;;;;;;10.07;3.95;;;;;;;17.44;63.29;101761.34;6210859;23;19988;-82
2023/06/15 23:32:15;;;;;;;8.43;4.05;;;;;;;17.40;63.40;101761.78;6211225;23;20337;-82
2023/06/15 23:34:44;;;;;;;9.30;3.67;;;;;;;17.36;63.62;101757.69;6211149;23;20001;-79
2023/06/15 23:37:09;;;;;;;7.43;3.85;;;;;;;17.35;63.68;101764.84;6210497;23;20005;-79
2023/06/15 23:39:35;;;;;;;5.70;3.80;;;;;;;17.24;64.15;101762.28;6210269;23;20000;-82
2023/06/15 23:42:00;;;;;;;8.57;3.85;;;;;;;17.18;64.13;101752.16;6184113;23;20011;-82
2023/06/15 23:44:28;;;;;;;6.72;4.03;;;;;;;17.15;64.16;101763.06;6211395;23;20004;-82
2023/06/15 23:46:54;;;;;;;8.07;4.30;;;;;;;17.16;64.25;101762.09;6210930;23;20001;-82
2023/06/15 23:49:19;;;;;;;7.75;4.30;;;;;;;17.10;64.52;101765.28;6184930;23;20015;-79
2023/06/15 23:51:45;;;;;;;9.90;4.30;;;;;;;17.04;64.73;101765.81;6210648;23;19997;-81
2023/06/15 23:54:14;;;;;;;6.72;4.07;;;;;;;17.07;64.89;101761.06;6212110;23;20007;-79
2023/06/15 23:56:39;;;;;;;8.05;4.38;;;;;;;17.04;65.37;101765.81;6211031;23;20012;-82
2023/06/15 23:59:29;;;;;;;7.60;4.30;;;;;;;17.05;64.32;101756.88;6210685;23;20011;-82
